createdAt,value
2023-02-05T00:02:34.459Z,101162.06
2023-02-05T00:05:06.754Z,101154.97
2023-02-05T00:07:47.898Z,101167.13
2023-02-05T00:10:28.943Z,101161.28
2023-02-05T00:13:04.867Z,101156.91
2023-02-05T00:15:40.221Z,101164.94
2023-02-05T00:18:15.352Z,101167.94
2023-02-05T00:20:50.519Z,101169.47
2023-02-05T00:23:25.207Z,101169.59
2023-02-05T00:26:05.793Z,101176.56
2023-02-05T00:28:39.481Z,101182.81
2023-02-05T00:31:22.484Z,101188.13
2023-02-05T00:33:59.157Z,101192.09
2023-02-05T00:36:33.955Z,101192.06
2023-02-05T00:39:10.175Z,101188.75
2023-02-05T00:41:50.911Z,101187.84
2023-02-05T00:44:37.117Z,101185.38
2023-02-05T00:47:15.371Z,101180.59
2023-02-05T00:49:53.661Z,101183.22
2023-02-05T00:52:31.211Z,101179.47
2023-02-05T00:55:04.199Z,101192.00
2023-02-05T00:57:43.746Z,101201.19
2023-02-05T01:00:19.059Z,101196.91
2023-02-05T01:02:53.970Z,101202.13
2023-02-05T01:05:29.194Z,101206.25
2023-02-05T01:08:22.230Z,101210.13
2023-02-05T01:10:52.517Z,101211.28
2023-02-05T01:13:31.513Z,101213.53
2023-02-05T01:16:11.694Z,101210.13
2023-02-05T01:18:55.963Z,101209.72
2023-02-05T01:21:29.502Z,101211.06
2023-02-05T01:24:11.187Z,101217.63
2023-02-05T01:26:51.610Z,101202.09
2023-02-05T01:29:29.875Z,101195.50
2023-02-05T01:32:05.118Z,101205.53
2023-02-05T01:34:34.766Z,101209.56
2023-02-05T01:37:12.811Z,101209.38
2023-02-05T01:39:53.536Z,101212.97
2023-02-05T01:42:34.674Z,101218.91
2023-02-05T01:45:32.856Z,101217.06
2023-02-05T01:48:11.751Z,101223.56
2023-02-05T01:50:56.784Z,101221.31
2023-02-05T01:53:36.189Z,101217.66
2023-02-05T01:56:44.734Z,101219.06
2023-02-05T01:59:30.754Z,101213.47
2023-02-05T02:02:07.806Z,101212.34
2023-02-05T02:04:50.383Z,101214.31
2023-02-05T02:07:25.030Z,101209.53
2023-02-05T02:09:58.842Z,101210.44
2023-02-05T02:12:35.300Z,101217.44
2023-02-05T02:15:18.630Z,101219.38
2023-02-05T02:18:16.256Z,101220.28
2023-02-05T02:21:23.085Z,101219.72
2023-02-05T02:24:10.753Z,101233.69
2023-02-05T02:26:57.024Z,101227.75
2023-02-05T02:29:40.220Z,101233.50
2023-02-05T02:32:41.848Z,101235.47
2023-02-05T02:35:46.372Z,101239.81
2023-02-05T02:38:38.037Z,101244.25
2023-02-05T02:41:21.154Z,101248.63
2023-02-05T02:44:04.533Z,101250.03
2023-02-05T02:46:47.187Z,101253.44
2023-02-05T02:49:37.144Z,101250.41
2023-02-05T02:52:09.476Z,101261.44
2023-02-05T02:54:46.998Z,101261.06
2023-02-05T02:57:32.736Z,101263.91
2023-02-05T03:00:09.510Z,101281.28
2023-02-05T03:02:53.877Z,101281.28
2023-02-05T03:05:33.789Z,101279.41
2023-02-05T03:08:42.857Z,101291.13
2023-02-05T03:11:20.170Z,101290.63
2023-02-05T03:13:55.723Z,101290.81
2023-02-05T03:16:34.275Z,101293.00
2023-02-05T03:21:57.177Z,101291.28
2023-02-05T03:24:38.978Z,101292.63
2023-02-05T03:27:16.527Z,101295.59
2023-02-05T03:29:47.540Z,101292.69
2023-02-05T03:32:36.266Z,101298.25
2023-02-05T03:35:26.898Z,101289.94
2023-02-05T03:38:36.038Z,101304.25
2023-02-05T03:41:47.845Z,101319.56
2023-02-05T03:44:43.665Z,101330.91
2023-02-05T03:47:43.482Z,101320.00
2023-02-05T03:50:28.334Z,101318.97
2023-02-05T03:53:22.368Z,101322.84
2023-02-05T03:56:07.759Z,101332.78
2023-02-05T03:58:46.079Z,101332.38
2023-02-05T04:01:25.709Z,101331.22
2023-02-05T04:04:07.164Z,101334.25
2023-02-05T04:06:43.042Z,101333.75
2023-02-05T04:09:23.864Z,101331.22
2023-02-05T04:12:08.516Z,101325.16
2023-02-05T04:14:48.129Z,101334.28
2023-02-05T04:17:29.144Z,101337.38
2023-02-05T04:20:06.174Z,101340.78
2023-02-05T04:22:47.316Z,101340.00
2023-02-05T04:25:20.742Z,101353.03
2023-02-05T04:27:55.147Z,101346.38
2023-02-05T04:30:42.474Z,101351.66
2023-02-05T04:33:22.157Z,101357.91
2023-02-05T04:36:00.549Z,101359.69
2023-02-05T04:38:40.334Z,101360.34
2023-02-05T04:41:27.233Z,101357.78
2023-02-05T04:44:19.093Z,101371.88
2023-02-05T04:46:59.697Z,101378.81
2023-02-05T04:49:43.493Z,101382.81
2023-02-05T04:52:24.531Z,101380.50
2023-02-05T04:54:56.602Z,101383.19
2023-02-05T04:57:36.324Z,101393.06
2023-02-05T05:00:10.993Z,101396.28
2023-02-05T05:02:55.462Z,101402.53
2023-02-05T05:05:36.227Z,101403.38
2023-02-05T05:08:12.353Z,101390.16
2023-02-05T05:10:50.603Z,101399.78
2023-02-05T05:13:28.574Z,101407.69
2023-02-05T05:16:04.111Z,101399.44
2023-02-05T05:18:36.749Z,101403.34
2023-02-05T05:21:15.000Z,101411.44
2023-02-05T05:23:50.836Z,101411.63
2023-02-05T05:26:31.328Z,101423.81
2023-02-05T05:29:08.896Z,101420.03
2023-02-05T05:31:44.155Z,101415.94
2023-02-05T05:34:24.756Z,101413.91
2023-02-05T05:37:07.895Z,101421.34
2023-02-05T05:40:03.872Z,101421.56
2023-02-05T05:42:56.335Z,101425.69
2023-02-05T05:45:38.168Z,101428.16
2023-02-05T05:48:21.444Z,101432.00
2023-02-05T05:50:58.602Z,101427.50
2023-02-05T05:53:33.738Z,101437.47
2023-02-05T05:56:09.399Z,101446.13
2023-02-05T05:58:50.492Z,101443.75
2023-02-05T06:01:26.080Z,101446.53
2023-02-05T06:04:04.428Z,101462.91
2023-02-05T06:06:42.598Z,101463.81
2023-02-05T06:09:27.800Z,101467.41
2023-02-05T06:12:11.864Z,101461.66
2023-02-05T06:14:51.171Z,101463.53
2023-02-05T06:17:33.577Z,101461.16
2023-02-05T06:20:14.309Z,101468.13
2023-02-05T06:22:49.925Z,101461.16
2023-02-05T06:25:28.550Z,101473.38
2023-02-05T06:28:01.667Z,101485.16
2023-02-05T06:30:37.461Z,101484.25
2023-02-05T06:33:15.596Z,101484.19
2023-02-05T06:35:50.866Z,101485.13
2023-02-05T06:38:34.518Z,101484.22
2023-02-05T06:41:16.033Z,101482.06
2023-02-05T06:43:54.140Z,101476.53
2023-02-05T06:46:29.848Z,101484.28
2023-02-05T06:49:09.366Z,101479.94
2023-02-05T06:51:52.664Z,101482.00
2023-02-05T06:54:33.491Z,101477.88
2023-02-05T06:57:11.658Z,101475.78
2023-02-05T06:59:49.394Z,101477.22
2023-02-05T07:02:30.097Z,101496.84
2023-02-05T07:05:10.841Z,101494.34
2023-02-05T07:07:52.614Z,101489.81
2023-02-05T07:10:42.661Z,101499.75
2023-02-05T07:13:21.146Z,101495.22
2023-02-05T07:15:56.271Z,101492.84
2023-02-05T07:18:29.798Z,101499.91
2023-02-05T07:21:16.002Z,101498.16
2023-02-05T07:23:51.664Z,101494.16
2023-02-05T07:26:24.733Z,101505.91
2023-02-05T07:29:03.476Z,101511.41
2023-02-05T07:31:38.866Z,101509.06
2023-02-05T07:34:22.791Z,101514.91
2023-02-05T07:36:56.094Z,101516.13
2023-02-05T07:39:33.626Z,101516.63
2023-02-05T07:42:09.416Z,101510.06
2023-02-05T07:44:57.194Z,101510.66
2023-02-05T07:47:32.606Z,101506.28
2023-02-05T07:50:06.275Z,101506.66
2023-02-05T07:52:47.007Z,101510.41
2023-02-05T07:55:22.236Z,101509.16
2023-02-05T07:57:56.950Z,101503.06
2023-02-05T08:00:36.651Z,101516.22
2023-02-05T08:03:16.631Z,101514.00
2023-02-05T08:05:54.385Z,101520.16
2023-02-05T08:08:30.128Z,101520.81
2023-02-05T08:11:05.502Z,101516.81
2023-02-05T08:13:45.556Z,101515.72
2023-02-05T08:16:23.435Z,101517.53
2023-02-05T08:19:01.726Z,101514.38
2023-02-05T08:21:41.129Z,101515.03
2023-02-05T08:24:16.418Z,101516.81
2023-02-05T08:26:51.413Z,101508.34
2023-02-05T08:29:35.150Z,101511.72
2023-02-05T08:32:15.776Z,101516.25
2023-02-05T08:34:54.155Z,101511.97
2023-02-05T08:37:24.438Z,101509.31
2023-02-05T08:40:02.131Z,101509.47
2023-02-05T08:42:57.253Z,101515.25
2023-02-05T08:45:40.564Z,101520.28
2023-02-05T08:48:13.504Z,101522.09
2023-02-05T08:50:55.609Z,101518.19
2023-02-05T08:53:34.139Z,101515.84
2023-02-05T08:56:25.082Z,101511.97
2023-02-05T08:59:06.114Z,101515.00
2023-02-05T09:01:44.200Z,101527.00
2023-02-05T09:04:25.588Z,101529.38
2023-02-05T09:07:03.733Z,101527.47
2023-02-05T09:09:40.988Z,101526.53
2023-02-05T09:12:13.562Z,101515.44
2023-02-05T09:14:48.015Z,101518.06
2023-02-05T09:17:26.258Z,101507.19
2023-02-05T09:20:12.044Z,101514.78
2023-02-05T09:22:52.296Z,101515.88
2023-02-05T09:25:30.138Z,101514.47
2023-02-05T09:28:03.356Z,101508.44
2023-02-05T09:30:38.160Z,101512.41
2023-02-05T09:33:20.403Z,101508.59
2023-02-05T09:35:55.080Z,101508.59
2023-02-05T09:38:24.864Z,101511.25
2023-02-05T09:41:03.231Z,101513.25
2023-02-05T09:43:54.902Z,101518.69
2023-02-05T09:46:44.769Z,101512.06
2023-02-05T09:49:38.202Z,101504.41
2023-02-05T09:52:31.013Z,101513.09
2023-02-05T09:55:11.381Z,101504.19
2023-02-05T09:57:44.475Z,101514.59
2023-02-05T10:00:28.283Z,101509.44
2023-02-05T10:03:12.667Z,101508.34
2023-02-05T10:06:22.232Z,101504.38
2023-02-05T10:09:08.228Z,101501.34
2023-02-05T10:11:40.942Z,101503.03
2023-02-05T10:14:49.321Z,101502.00
2023-02-05T10:17:43.765Z,101498.97
2023-02-05T10:20:32.222Z,101498.75
2023-02-05T10:23:18.208Z,101491.00
2023-02-05T10:26:12.627Z,101486.44
2023-02-05T10:29:05.467Z,101487.63
2023-02-05T10:31:50.169Z,101486.66
2023-02-05T10:34:51.740Z,101483.78
2023-02-05T10:37:35.400Z,101482.59
2023-02-05T10:40:28.045Z,101491.00
2023-02-05T10:43:16.128Z,101487.59
2023-02-05T10:45:58.387Z,101486.75
2023-02-05T10:48:44.180Z,101479.63
2023-02-05T10:51:27.621Z,101474.00
2023-02-05T10:54:01.669Z,101466.16
2023-02-05T10:56:43.544Z,101468.69
2023-02-05T10:59:27.924Z,101463.97
2023-02-05T11:02:14.831Z,101455.66
2023-02-05T11:04:48.323Z,101462.09
2023-02-05T11:07:36.130Z,101459.16
2023-02-05T11:10:28.735Z,101454.97
2023-02-05T11:13:07.289Z,101459.06
2023-02-05T11:15:56.307Z,101459.75
2023-02-05T11:18:52.154Z,101451.84
2023-02-05T11:21:47.545Z,101446.56
2023-02-05T11:24:48.450Z,101451.56
2023-02-05T11:27:33.182Z,101456.25
2023-02-05T11:33:31.603Z,101453.97
2023-02-05T11:36:25.551Z,101453.22
2023-02-05T11:39:01.783Z,101446.47
2023-02-05T11:41:52.002Z,101439.97
2023-02-05T11:44:36.354Z,101434.25
2023-02-05T11:47:12.055Z,101434.25
2023-02-05T11:49:50.146Z,101430.03
2023-02-05T11:52:37.881Z,101427.28
2023-02-05T11:55:36.300Z,101424.78
2023-02-05T11:58:34.872Z,101420.88
2023-02-05T12:01:31.094Z,101416.59
2023-02-05T12:04:19.527Z,101415.53
2023-02-05T12:06:57.514Z,101412.84
2023-02-05T12:09:35.300Z,101416.16
2023-02-05T12:12:29.678Z,101403.03
2023-02-05T12:15:13.737Z,101409.69
2023-02-05T12:18:01.581Z,101395.53
2023-02-05T12:20:50.793Z,101394.56
2023-02-05T12:23:56.290Z,101398.34
2023-02-05T12:26:46.200Z,101398.25
2023-02-05T12:29:59.799Z,101394.25
2023-02-05T12:32:58.930Z,101401.03
2023-02-05T12:35:28.903Z,101399.81
2023-02-05T12:38:05.154Z,101391.84
2023-02-05T12:40:52.000Z,101385.88
2023-02-05T12:43:45.982Z,101378.72
2023-02-05T12:46:38.694Z,101373.66
2023-02-05T12:49:37.171Z,101375.09
2023-02-05T12:52:20.723Z,101369.31
2023-02-05T12:55:25.640Z,101365.44
2023-02-05T12:58:08.442Z,101361.19
2023-02-05T13:00:47.656Z,101364.22
2023-02-05T13:03:29.507Z,101357.06
2023-02-05T13:06:24.447Z,101360.81
2023-02-05T13:09:28.420Z,101353.56
2023-02-05T13:12:07.381Z,101360.09
2023-02-05T13:14:47.433Z,101353.56
2023-02-05T13:17:52.839Z,101362.16
2023-02-05T13:21:08.609Z,101363.50
2023-02-05T13:24:04.019Z,101364.94
2023-02-05T13:27:03.952Z,101361.69
2023-02-05T13:29:52.499Z,101354.75
2023-02-05T13:32:35.109Z,101362.00
2023-02-05T13:35:11.657Z,101358.28
2023-02-05T13:37:59.307Z,101357.44
2023-02-05T13:40:49.550Z,101365.09
2023-02-05T13:43:30.845Z,101365.56
2023-02-05T13:46:22.543Z,101364.47
2023-02-05T13:49:01.555Z,101358.66
2023-02-05T13:51:46.637Z,101362.53
2023-02-05T13:55:07.240Z,101365.31
2023-02-05T13:58:10.833Z,101362.75
2023-02-05T14:00:45.269Z,101367.84
2023-02-05T14:03:38.330Z,101360.72
2023-02-05T14:06:37.967Z,101369.06
2023-02-05T14:09:26.212Z,101364.69
2023-02-05T14:12:04.398Z,101373.16
2023-02-05T14:14:42.069Z,101376.78
2023-02-05T14:17:27.786Z,101378.50
2023-02-05T14:20:06.229Z,101371.94
2023-02-05T14:22:48.699Z,101382.88
2023-02-05T14:25:45.206Z,101376.31
2023-02-05T14:28:36.700Z,101382.88
2023-02-05T14:31:10.045Z,101376.22
2023-02-05T14:33:46.547Z,101384.44
2023-02-05T14:36:48.266Z,101379.50
2023-02-05T14:39:41.878Z,101376.84
2023-02-05T14:42:29.612Z,101384.19
2023-02-05T14:45:06.929Z,101370.63
2023-02-05T14:47:47.254Z,101377.53
2023-02-05T14:50:49.562Z,101379.69
2023-02-05T14:53:29.694Z,101373.59
2023-02-05T14:56:03.480Z,101375.88
2023-02-05T14:58:45.288Z,101373.59
2023-02-05T15:01:33.848Z,101371.88
2023-02-05T15:04:19.547Z,101375.69
2023-02-05T15:06:55.508Z,101377.19
2023-02-05T15:09:44.374Z,101377.00
2023-02-05T15:12:35.385Z,101384.50
2023-02-05T15:15:30.841Z,101379.47
2023-02-05T15:18:24.657Z,101381.38
2023-02-05T15:21:15.155Z,101387.22
2023-02-05T15:24:13.976Z,101388.00
2023-02-05T15:27:01.666Z,101384.44
2023-02-05T15:29:44.622Z,101378.88
2023-02-05T15:32:24.241Z,101387.66
2023-02-05T15:35:14.336Z,101389.00
2023-02-05T15:37:54.040Z,101396.44
2023-02-05T15:40:49.841Z,101395.59
2023-02-05T15:43:28.095Z,101387.03
2023-02-05T15:46:11.956Z,101386.75
2023-02-05T15:48:56.075Z,101395.66
2023-02-05T15:51:39.462Z,101384.72
2023-02-05T15:54:26.756Z,101390.34
2023-02-05T15:57:02.886Z,101401.59
2023-02-05T15:59:35.829Z,101396.88
2023-02-05T16:02:18.952Z,101405.59
2023-02-05T16:05:03.631Z,101401.34
2023-02-05T16:08:03.099Z,101408.94
2023-02-05T16:10:41.164Z,101415.25
2023-02-05T16:13:21.081Z,101418.53
2023-02-05T16:16:10.720Z,101406.53
2023-02-05T16:19:04.057Z,101407.47
2023-02-05T16:21:51.215Z,101420.69
2023-02-05T16:24:32.858Z,101425.72
2023-02-05T16:27:13.073Z,101426.66
2023-02-05T16:29:50.155Z,101426.66
2023-02-05T16:32:47.297Z,101421.56
2023-02-05T16:35:34.891Z,101423.13
2023-02-05T16:38:16.631Z,101421.91
2023-02-05T16:41:01.831Z,101421.16
2023-02-05T16:43:42.486Z,101433.88
2023-02-05T16:46:24.333Z,101435.84
2023-02-05T16:49:14.586Z,101436.97
2023-02-05T16:51:55.847Z,101437.16
2023-02-05T16:54:38.658Z,101439.28
2023-02-05T16:57:26.986Z,101450.25
2023-02-05T17:00:11.455Z,101447.66
2023-02-05T17:02:51.220Z,101454.19
2023-02-05T17:05:34.537Z,101456.16
2023-02-05T17:08:13.078Z,101462.53
2023-02-05T17:11:06.931Z,101452.59
2023-02-05T17:13:53.525Z,101455.31
2023-02-05T17:16:42.648Z,101454.38
2023-02-05T17:19:30.607Z,101473.97
2023-02-05T17:22:20.103Z,101478.31
2023-02-05T17:25:00.808Z,101477.78
2023-02-05T17:27:38.189Z,101485.84
2023-02-05T17:30:24.191Z,101488.06
2023-02-05T17:32:57.963Z,101485.72
2023-02-05T17:35:36.323Z,101491.59
2023-02-05T17:38:14.093Z,101493.00
2023-02-05T17:40:50.250Z,101498.56
2023-02-05T17:43:42.274Z,101489.63
2023-02-05T17:46:18.350Z,101503.63
2023-02-05T17:49:02.179Z,101504.56
2023-02-05T17:51:48.420Z,101500.56
2023-02-05T17:54:30.203Z,101505.53
2023-02-05T17:57:23.406Z,101507.22
2023-02-05T18:00:01.072Z,101519.00
2023-02-05T18:02:36.742Z,101522.91
2023-02-05T18:05:19.117Z,101516.94
2023-02-05T18:08:06.373Z,101525.28
2023-02-05T18:10:44.082Z,101526.59
2023-02-05T18:13:25.524Z,101533.50
2023-02-05T18:16:12.155Z,101535.44
2023-02-05T18:18:51.165Z,101528.53
2023-02-05T18:21:37.189Z,101538.66
2023-02-05T18:24:21.064Z,101529.91
2023-02-05T18:27:08.247Z,101534.06
2023-02-05T18:29:45.722Z,101530.50
2023-02-05T18:32:26.326Z,101541.28
2023-02-05T18:35:01.407Z,101541.38
2023-02-05T18:37:41.619Z,101545.13
2023-02-05T18:40:29.752Z,101549.69
2023-02-05T18:43:16.956Z,101557.00
2023-02-05T18:45:54.709Z,101556.16
2023-02-05T18:48:38.063Z,101561.63
2023-02-05T18:51:17.000Z,101559.22
2023-02-05T18:53:58.738Z,101560.91
2023-02-05T18:56:37.960Z,101568.69
2023-02-05T18:59:26.297Z,101564.56
2023-02-05T19:02:01.130Z,101561.47
2023-02-05T19:04:42.174Z,101566.34
2023-02-05T19:07:27.907Z,101576.91
2023-02-05T19:10:12.380Z,101581.34
2023-02-05T19:12:50.517Z,101576.00
2023-02-05T19:15:36.863Z,101582.06
2023-02-05T19:18:18.120Z,101586.88
2023-02-05T19:20:55.579Z,101586.09
2023-02-05T19:23:35.382Z,101585.47
2023-02-05T19:26:28.140Z,101595.13
2023-02-05T19:29:14.342Z,101599.84
2023-02-05T19:31:58.885Z,101600.84
2023-02-05T19:34:40.675Z,101598.19
2023-02-05T19:37:21.110Z,101609.03
2023-02-05T19:39:59.070Z,101613.81
2023-02-05T19:42:37.543Z,101619.94
2023-02-05T19:45:23.995Z,101620.38
2023-02-05T19:48:08.137Z,101628.22
2023-02-05T19:50:50.202Z,101632.25
2023-02-05T19:53:30.996Z,101632.63
2023-02-05T19:56:19.384Z,101636.25
2023-02-05T19:59:00.016Z,101634.59
2023-02-05T20:01:38.214Z,101638.59
2023-02-05T20:04:22.486Z,101637.94
2023-02-05T20:07:06.414Z,101640.63
2023-02-05T20:09:50.897Z,101635.16
2023-02-05T20:12:33.124Z,101634.50
2023-02-05T20:15:19.425Z,101628.06
2023-02-05T20:18:01.266Z,101628.81
2023-02-05T20:20:40.355Z,101626.75
2023-02-05T20:23:24.118Z,101636.50
2023-02-05T20:26:10.541Z,101640.44
2023-02-05T20:29:12.966Z,101642.66
2023-02-05T20:32:02.188Z,101648.66
2023-02-05T20:34:47.801Z,101648.31
2023-02-05T20:37:50.690Z,101651.81
2023-02-05T20:40:35.987Z,101647.03
2023-02-05T20:43:18.900Z,101650.69
2023-02-05T20:46:03.978Z,101655.25
2023-02-05T20:48:52.881Z,101647.94
2023-02-05T20:51:40.816Z,101650.44
2023-02-05T20:54:35.157Z,101650.31
2023-02-05T20:57:21.615Z,101651.81
2023-02-05T21:00:06.565Z,101652.06
2023-02-05T21:02:46.439Z,101652.53
2023-02-05T21:05:33.621Z,101669.38
2023-02-05T21:08:17.246Z,101663.53
2023-02-05T21:11:00.925Z,101662.78
2023-02-05T21:13:39.726Z,101658.38
2023-02-05T21:16:19.259Z,101671.56
2023-02-05T21:19:01.362Z,101662.34
2023-02-05T21:21:43.088Z,101662.91
2023-02-05T21:24:19.924Z,101666.88
2023-02-05T21:27:10.314Z,101665.22
2023-02-05T21:29:55.046Z,101664.09
2023-02-05T21:32:42.615Z,101670.28
2023-02-05T21:35:23.370Z,101672.97
2023-02-05T21:38:09.931Z,101678.53
2023-02-05T21:40:52.071Z,101691.22
2023-02-05T21:43:41.533Z,101696.59
2023-02-05T21:46:27.902Z,101691.44
2023-02-05T21:49:12.930Z,101692.38
2023-02-05T21:51:55.170Z,101704.78
2023-02-05T21:54:37.841Z,101703.69
2023-02-05T21:57:33.705Z,101709.00
2023-02-05T22:00:17.082Z,101713.56
2023-02-05T22:03:02.990Z,101719.19
2023-02-05T22:05:44.237Z,101717.38
2023-02-05T22:08:25.825Z,101726.84
2023-02-05T22:11:15.256Z,101735.25
2023-02-05T22:13:50.925Z,101732.34
2023-02-05T22:16:49.645Z,101748.41
2023-02-05T22:19:48.279Z,101750.44
2023-02-05T22:22:29.707Z,101758.47
2023-02-05T22:25:10.534Z,101764.63
2023-02-05T22:27:45.114Z,101768.13
2023-02-05T22:30:37.823Z,101768.50
2023-02-05T22:33:16.041Z,101773.75
2023-02-05T22:35:58.055Z,101758.41
2023-02-05T22:38:29.289Z,101766.28
2023-02-05T22:41:05.548Z,101763.44
2023-02-05T22:43:47.135Z,101755.78
2023-02-05T22:46:44.538Z,101756.09
2023-02-05T22:49:24.187Z,101766.00
2023-02-05T22:52:03.090Z,101767.81
2023-02-05T22:54:49.717Z,101760.75
2023-02-05T22:57:27.341Z,101759.03
2023-02-05T23:00:06.748Z,101755.53
2023-02-05T23:02:42.955Z,101753.88
2023-02-05T23:05:28.511Z,101756.50
2023-02-05T23:08:09.985Z,101755.81
2023-02-05T23:10:48.728Z,101762.97
2023-02-05T23:13:35.586Z,101752.47
2023-02-05T23:16:28.618Z,101763.38
2023-02-05T23:19:16.917Z,101771.13
2023-02-05T23:22:11.696Z,101781.94
2023-02-05T23:24:47.527Z,101790.28
2023-02-05T23:27:28.051Z,101793.09
2023-02-05T23:30:12.111Z,101774.94
2023-02-05T23:32:48.044Z,101787.09
2023-02-05T23:35:25.025Z,101792.50
2023-02-05T23:38:06.885Z,101798.69
2023-02-05T23:41:01.662Z,101785.66
2023-02-05T23:43:37.433Z,101786.88
2023-02-05T23:46:23.555Z,101789.84
2023-02-05T23:49:14.071Z,101783.94
2023-02-05T23:51:50.926Z,101784.34
2023-02-05T23:54:20.955Z,101782.81
2023-02-05T23:57:02.119Z,101783.84
2023-02-05T23:59:44.054Z,101790.09
